Time;durP1;ratioP1;P1;durP2;ratioP2;P2;SDS_P1;SDS_P2;PMS_P1;PMS_P2;Temp;Humidity;BMP_temperature;BMP_pressure;BME280_temperature;BME280_humidity;BME280_pressure;Samples;Min_cycle;Max_cycle;Signal;HPM_P1;HPM_P2
2021/03/23 00:00:43;;;;;;;14.43;11.00;;;7.40;99.90;;;;;;5109884;28;20529;-65
2021/03/23 00:05:45;;;;;;;15.13;12.33;;;7.40;99.90;;;;;;5110796;27;20512;-64
2021/03/23 00:08:26;;;;;;;13.27;11.67;;;7.40;99.90;;;;;;5110807;28;20925;-64
2021/03/23 00:10:54;;;;;;;13.47;11.07;;;7.40;99.90;;;;;;5109347;28;20505;-64
2021/03/23 00:13:20;;;;;;;12.77;10.43;;;7.40;99.90;;;;;;5110810;28;20391;-64
2021/03/23 00:15:45;;;;;;;14.50;11.00;;;7.40;99.90;;;;;;5110467;28;20673;-64
2021/03/23 00:18:12;;;;;;;11.30;10.00;;;7.40;99.90;;;;;;5109598;28;20165;-64
2021/03/23 00:20:38;;;;;;;12.23;10.27;;;7.40;99.90;;;;;;5109916;28;20183;-64
2021/03/23 00:23:04;;;;;;;11.77;9.90;;;7.40;99.90;;;;;;5110422;28;20472;-64
2021/03/23 00:25:29;;;;;;;12.17;10.47;;;7.30;99.90;;;;;;5110259;28;20204;-64
2021/03/23 00:27:55;;;;;;;14.30;9.90;;;7.30;99.90;;;;;;5110554;28;20456;-64
2021/03/23 00:30:21;;;;;;;10.67;9.50;;;7.30;99.90;;;;;;5110300;28;20179;-64
2021/03/23 00:32:46;;;;;;;12.00;9.80;;;7.30;99.90;;;;;;5110645;28;20169;-64
2021/03/23 00:35:12;;;;;;;10.23;9.13;;;7.30;99.90;;;;;;5110124;28;20908;-64
2021/03/23 00:37:39;;;;;;;11.40;9.77;;;7.30;99.90;;;;;;5108304;28;20676;-64
2021/03/23 00:40:08;;;;;;;11.20;8.67;;;7.30;99.90;;;;;;5110192;28;20881;-64
2021/03/23 00:42:34;;;;;;;10.80;9.70;;;7.30;99.90;;;;;;5110092;28;20401;-64
2021/03/23 00:45:01;;;;;;;10.90;9.80;;;7.30;99.90;;;;;;5109890;28;20590;-64
2021/03/23 00:47:27;;;;;;;12.20;10.13;;;7.30;99.90;;;;;;5110116;28;20892;-64
2021/03/23 00:49:52;;;;;;;10.27;9.37;;;7.30;99.90;;;;;;5108654;28;20496;-64
2021/03/23 00:52:18;;;;;;;11.37;10.10;;;7.20;99.90;;;;;;5109812;28;20841;-64
2021/03/23 00:54:44;;;;;;;12.80;10.00;;;7.30;99.90;;;;;;5109156;28;20179;-64
2021/03/23 00:57:09;;;;;;;13.03;10.90;;;7.20;99.90;;;;;;5110018;28;20171;-64
2021/03/23 00:59:35;;;;;;;12.17;10.83;;;7.20;99.90;;;;;;5110001;28;20217;-64
2021/03/23 01:02:00;;;;;;;12.50;10.97;;;7.20;99.90;;;;;;5109805;28;20583;-64
2021/03/23 01:04:26;;;;;;;15.70;12.57;;;7.20;99.90;;;;;;5109502;28;20200;-64
2021/03/23 01:06:52;;;;;;;13.47;12.00;;;7.20;99.90;;;;;;5109845;28;20170;-64
2021/03/23 01:09:17;;;;;;;13.80;11.90;;;7.20;99.90;;;;;;5109737;28;20161;-64
2021/03/23 01:11:43;;;;;;;15.33;12.40;;;7.20;99.90;;;;;;5107596;28;20532;-64
2021/03/23 01:14:09;;;;;;;13.33;12.00;;;7.20;99.90;;;;;;5101011;28;20177;-64
2021/03/23 01:16:34;;;;;;;14.23;12.90;;;7.20;99.90;;;;;;5078709;28;20169;-64
2021/03/23 01:19:00;;;;;;;15.10;13.60;;;7.20;99.90;;;;;;5075536;28;20622;-64
2021/03/23 01:21:26;;;;;;;16.07;14.00;;;7.20;99.90;;;;;;5075791;28;20181;-64
2021/03/23 01:23:52;;;;;;;15.53;13.93;;;7.20;99.90;;;;;;5075472;28;20700;-64
2021/03/23 01:26:17;;;;;;;16.17;14.57;;;7.20;99.90;;;;;;5075442;28;20395;-64
2021/03/23 01:28:43;;;;;;;16.60;14.30;;;7.10;99.90;;;;;;5076000;28;20180;-64
2021/03/23 01:31:09;;;;;;;17.03;15.10;;;7.10;99.90;;;;;;5075323;28;20154;-64
2021/03/23 01:33:34;;;;;;;18.40;16.47;;;7.10;99.90;;;;;;5075307;28;20157;-64
2021/03/23 01:36:00;;;;;;;26.40;20.07;;;7.10;99.90;;;;;;5075270;28;20164;-64
2021/03/23 01:38:25;;;;;;;23.33;18.33;;;7.10;99.90;;;;;;5074416;28;20158;-64
2021/03/23 01:40:51;;;;;;;22.50;19.73;;;7.10;99.90;;;;;;5075429;28;20249;-64
2021/03/23 01:43:35;;;;;;;21.93;19.60;;;7.10;99.90;;;;;;5075365;28;20170;-64
2021/03/23 01:46:22;;;;;;;23.80;18.93;;;7.10;99.90;;;;;;5075481;28;20706;-64
2021/03/23 01:48:48;;;;;;;21.17;17.60;;;7.10;99.90;;;;;;5074332;28;20402;-64
2021/03/23 01:51:15;;;;;;;20.23;18.07;;;7.10;99.90;;;;;;5075058;28;20385;-64
2021/03/23 01:53:45;;;;;;;18.90;17.00;;;7.10;99.90;;;;;;5075082;28;20220;-64
2021/03/23 01:56:12;;;;;;;21.40;19.10;;;7.10;99.90;;;;;;5073910;28;20426;-64
2021/03/23 01:58:42;;;;;;;19.13;17.20;;;7.10;99.90;;;;;;5074810;28;20426;-64
2021/03/23 02:01:12;;;;;;;18.37;16.47;;;7.10;99.90;;;;;;5074755;28;20760;-64
2021/03/23 02:03:38;;;;;;;19.50;17.60;;;7.10;99.90;;;;;;5074034;28;20455;-64
2021/03/23 02:06:04;;;;;;;18.40;16.50;;;7.10;99.90;;;;;;5074988;28;20432;-64
2021/03/23 02:08:30;;;;;;;21.40;19.23;;;7.10;99.90;;;;;;5074940;28;20442;-64
2021/03/23 02:10:59;;;;;;;28.30;21.70;;;7.10;99.90;;;;;;5074698;28;20732;-65
2021/03/23 02:13:25;;;;;;;21.70;19.60;;;7.20;99.90;;;;;;5074534;28;20392;-64
2021/03/23 02:15:51;;;;;;;24.60;21.53;;;7.10;99.90;;;;;;5074440;28;20404;-64
2021/03/23 02:18:21;;;;;;;25.37;22.73;;;7.20;99.90;;;;;;5074586;28;20153;-64
2021/03/23 02:20:57;;;;;;;27.50;21.43;;;7.20;99.90;;;;;;5086382;28;20422;-64
2021/03/23 02:23:25;;;;;;;22.60;20.20;;;7.20;99.90;;;;;;5093255;28;20397;-64
2021/03/23 02:25:51;;;;;;;24.27;20.10;;;7.20;99.90;;;;;;5094813;28;20402;-64
2021/03/23 02:28:17;;;;;;;21.90;19.50;;;7.20;99.90;;;;;;5093540;28;20812;-64
2021/03/23 02:30:43;;;;;;;20.00;17.93;;;7.10;99.90;;;;;;5094754;28;20239;-64
2021/03/23 02:33:09;;;;;;;21.80;19.50;;;7.20;99.90;;;;;;5094346;28;20442;-64
2021/03/23 02:35:37;;;;;;;20.37;18.30;;;7.10;99.90;;;;;;5094504;28;20390;-64
2021/03/23 02:38:03;;;;;;;22.90;19.17;;;7.10;99.90;;;;;;5092220;28;20659;-64
2021/03/23 02:40:30;;;;;;;22.90;20.67;;;7.10;99.90;;;;;;5094237;28;20879;-64
2021/03/23 02:42:56;;;;;;;22.93;20.50;;;7.10;99.90;;;;;;5092864;28;20486;-64
2021/03/23 02:45:23;;;;;;;21.53;18.80;;;7.10;99.90;;;;;;5094037;28;20919;-64
2021/03/23 02:47:48;;;;;;;22.30;20.10;;;7.20;99.90;;;;;;5094283;28;20960;-64
2021/03/23 02:50:15;;;;;;;22.63;18.63;;;7.10;99.90;;;;;;5094185;28;20393;-64
2021/03/23 02:52:40;;;;;;;21.80;19.40;;;7.10;99.90;;;;;;5093916;28;20217;-64
2021/03/23 02:55:07;;;;;;;23.00;20.53;;;7.10;99.90;;;;;;5093148;28;20438;-64
2021/03/23 02:57:32;;;;;;;23.37;20.23;;;7.10;99.90;;;;;;5093903;28;20186;-64
2021/03/23 02:59:58;;;;;;;20.47;18.27;;;7.10;99.90;;;;;;5093954;28;20429;-64
2021/03/23 03:02:23;;;;;;;22.43;19.93;;;7.10;99.90;;;;;;5092717;28;20159;-64
2021/03/23 03:04:49;;;;;;;26.20;19.40;;;7.10;99.90;;;;;;5093629;28;20231;-64
2021/03/23 03:07:15;;;;;;;24.60;20.33;;;7.10;99.90;;;;;;5093653;28;20160;-64
2021/03/23 03:09:40;;;;;;;21.00;18.40;;;7.10;99.90;;;;;;5093978;28;20520;-64
2021/03/23 03:12:07;;;;;;;18.57;16.27;;;7.10;99.90;;;;;;5092752;28;20574;-64
2021/03/23 03:14:32;;;;;;;17.97;16.10;;;7.10;99.90;;;;;;5081721;28;20189;-64
2021/03/23 03:16:58;;;;;;;21.47;16.03;;;7.10;99.90;;;;;;5073433;28;20403;-64
2021/03/23 03:19:23;;;;;;;22.83;17.63;;;7.10;99.90;;;;;;5073508;28;20172;-64
2021/03/23 03:21:49;;;;;;;19.40;17.50;;;7.10;99.90;;;;;;5073209;28;20213;-64
2021/03/23 03:24:15;;;;;;;19.73;16.80;;;7.10;99.90;;;;;;5073176;28;20196;-64
2021/03/23 03:26:41;;;;;;;19.90;16.27;;;7.10;99.90;;;;;;5072045;28;20388;-64
2021/03/23 03:29:06;;;;;;;20.67;17.10;;;7.10;99.90;;;;;;5074038;28;20411;-64
2021/03/23 03:31:33;;;;;;;18.30;16.27;;;7.10;99.90;;;;;;5073295;28;20610;-64
2021/03/23 03:34:00;;;;;;;19.47;16.17;;;7.10;99.90;;;;;;5072997;28;20154;-64
2021/03/23 03:36:27;;;;;;;19.23;16.63;;;7.10;99.90;;;;;;5072296;28;20549;-64
2021/03/23 03:38:53;;;;;;;19.53;16.37;;;7.00;99.90;;;;;;5071578;28;20421;-64
2021/03/23 03:41:20;;;;;;;18.57;15.27;;;7.10;99.90;;;;;;5073025;28;20407;-64
2021/03/23 03:43:45;;;;;;;18.50;16.27;;;7.10;99.90;;;;;;5073904;28;20533;-65
2021/03/23 03:46:11;;;;;;;15.97;14.37;;;7.10;99.90;;;;;;5072325;28;20438;-65
2021/03/23 03:48:37;;;;;;;17.00;14.77;;;7.10;99.90;;;;;;5073113;28;20548;-65
2021/03/23 03:51:03;;;;;;;18.50;16.00;;;7.00;99.90;;;;;;5072777;28;20642;-65
2021/03/23 03:53:28;;;;;;;20.37;15.30;;;7.10;99.90;;;;;;5072897;28;20249;-65
2021/03/23 03:55:55;;;;;;;17.80;15.03;;;7.10;99.90;;;;;;5072733;28;20472;-65
2021/03/23 03:58:21;;;;;;;18.20;16.03;;;7.10;99.90;;;;;;5073301;28;20165;-65
2021/03/23 04:00:46;;;;;;;19.70;16.77;;;7.10;99.90;;;;;;5071491;28;20391;-65
2021/03/23 04:03:19;;;;;;;19.43;16.73;;;7.10;99.90;;;;;;5073295;28;20777;-65
2021/03/23 04:05:45;;;;;;;20.20;16.53;;;7.10;99.90;;;;;;5071433;28;20195;-65
2021/03/23 04:08:13;;;;;;;19.97;16.90;;;7.10;99.90;;;;;;5072857;28;20392;-65
2021/03/23 04:10:40;;;;;;;17.53;15.43;;;7.00;99.90;;;;;;5072752;28;20429;-65
2021/03/23 04:13:06;;;;;;;20.60;17.20;;;7.10;99.90;;;;;;5072693;28;20409;-65
2021/03/23 04:15:35;;;;;;;18.67;16.67;;;7.00;99.90;;;;;;5072654;28;20412;-65
2021/03/23 04:18:01;;;;;;;18.53;16.20;;;7.10;99.90;;;;;;5071439;28;20153;-65
2021/03/23 04:20:28;;;;;;;23.97;16.90;;;7.00;99.90;;;;;;5090491;28;20758;-65
2021/03/23 04:22:54;;;;;;;21.10;17.30;;;7.00;99.90;;;;;;5092848;28;20411;-65
2021/03/23 04:25:24;;;;;;;19.97;16.00;;;7.10;99.90;;;;;;5092871;28;20966;-65
2021/03/23 04:27:50;;;;;;;17.47;15.67;;;7.00;99.90;;;;;;5092729;28;20387;-65
2021/03/23 04:30:17;;;;;;;21.57;15.87;;;7.00;99.90;;;;;;5091558;28;20397;-65
2021/03/23 04:32:42;;;;;;;19.07;17.00;;;7.00;99.90;;;;;;5091510;28;20457;-65
2021/03/23 04:35:17;;;;;;;19.83;17.50;;;7.00;99.90;;;;;;5092470;28;20414;-65
2021/03/23 04:37:42;;;;;;;17.77;15.90;;;7.10;99.90;;;;;;5072447;28;20622;-65
2021/03/23 04:40:09;;;;;;;18.13;16.13;;;7.00;99.90;;;;;;5072403;28;20480;-65
2021/03/23 04:42:34;;;;;;;18.43;15.97;;;7.10;99.90;;;;;;5072366;28;20168;-65
2021/03/23 04:45:00;;;;;;;23.30;18.20;;;7.10;99.90;;;;;;5072557;28;20439;-65
2021/03/23 04:47:25;;;;;;;18.50;16.60;;;7.10;99.90;;;;;;5072235;28;20177;-65
2021/03/23 04:49:51;;;;;;;16.80;15.10;;;7.10;99.90;;;;;;5072303;28;20212;-65
2021/03/23 04:52:16;;;;;;;20.77;15.73;;;7.10;99.90;;;;;;5076314;28;20605;-65
2021/03/23 04:54:42;;;;;;;21.00;16.30;;;7.10;99.90;;;;;;5076035;28;20186;-65
2021/03/23 04:57:08;;;;;;;18.60;16.23;;;7.00;99.90;;;;;;5076042;28;20621;-65
2021/03/23 04:59:33;;;;;;;20.40;16.87;;;7.10;99.90;;;;;;5076255;28;20163;-65
2021/03/23 05:01:59;;;;;;;18.57;16.27;;;7.10;99.90;;;;;;5075941;28;20396;-65
2021/03/23 05:04:24;;;;;;;18.43;16.40;;;7.10;99.90;;;;;;5076024;28;20204;-65
2021/03/23 05:06:50;;;;;;;19.60;17.50;;;7.10;99.90;;;;;;5076001;28;20162;-65
2021/03/23 05:09:16;;;;;;;24.67;17.53;;;7.10;99.90;;;;;;5075187;28;20522;-65
2021/03/23 05:11:41;;;;;;;19.47;17.50;;;7.10;99.90;;;;;;5074560;28;20230;-65
2021/03/23 05:14:09;;;;;;;18.53;16.63;;;7.10;99.90;;;;;;5075612;28;20210;-65
2021/03/23 05:16:34;;;;;;;21.10;17.60;;;7.10;99.90;;;;;;5075695;28;20179;-65
2021/03/23 05:19:00;;;;;;;22.80;18.90;;;7.10;99.90;;;;;;5075796;28;20400;-65
2021/03/23 05:21:26;;;;;;;22.23;18.63;;;7.10;99.90;;;;;;5075668;28;20168;-65
2021/03/23 05:23:55;;;;;;;22.57;18.37;;;7.10;99.90;;;;;;5075440;28;20807;-65
2021/03/23 05:26:21;;;;;;;25.67;19.53;;;7.10;99.90;;;;;;5076547;28;20571;-65
2021/03/23 05:28:47;;;;;;;19.60;17.43;;;7.00;99.90;;;;;;5095971;28;20406;-65
2021/03/23 05:31:15;;;;;;;21.53;19.23;;;7.00;99.90;;;;;;5095757;28;20160;-65
2021/03/23 05:33:40;;;;;;;22.77;18.73;;;7.10;99.90;;;;;;5095601;28;20394;-65
2021/03/23 05:36:06;;;;;;;20.73;18.63;;;7.10;99.90;;;;;;5095410;28;20431;-65
2021/03/23 05:38:32;;;;;;;22.63;20.10;;;7.10;99.90;;;;;;5095542;28;20152;-65
2021/03/23 05:41:05;;;;;;;22.80;19.10;;;7.10;99.90;;;;;;5095475;28;20398;-65
2021/03/23 05:46:36;;;;;;;25.20;20.27;;;7.10;99.90;;;;;;5131350;27;20525;-65
2021/03/23 05:51:55;;;;;;;25.50;20.50;;;7.10;99.90;;;;;;5110918;27;20972;-64
2021/03/23 05:57:06;;;;;;;23.23;19.37;;;7.10;99.90;;;;;;5131431;27;20877;-65
2021/03/23 06:02:23;;;;;;;24.03;20.60;;;7.10;99.90;;;;;;5114948;27;20515;-65
2021/03/23 06:05:01;;;;;;;23.13;20.33;;;7.10;99.90;;;;;;5111174;28;20791;-65
2021/03/23 06:07:29;;;;;;;25.77;21.43;;;7.10;99.90;;;;;;5110949;28;20393;-65
2021/03/23 06:09:57;;;;;;;25.17;21.73;;;7.10;99.90;;;;;;5111008;28;20478;-65
2021/03/23 06:12:47;;;;;;;24.87;20.90;;;7.10;99.90;;;;;;5109996;28;20474;-65
2021/03/23 06:15:36;;;;;;;21.73;19.33;;;7.10;99.90;;;;;;5109466;28;20414;-65
2021/03/23 06:18:15;;;;;;;23.20;20.70;;;7.10;99.90;;;;;;5109361;28;20405;-65
2021/03/23 06:21:06;;;;;;;24.40;20.90;;;7.10;99.90;;;;;;5109444;28;20498;-65
2021/03/23 06:26:41;;;;;;;24.63;20.50;;;7.20;99.90;;;;;;5131688;27;20510;-65
2021/03/23 06:29:16;;;;;;;23.50;21.07;;;7.20;99.90;;;;;;5130846;28;20378;-65
2021/03/23 06:32:22;;;;;;;26.50;22.03;;;7.20;99.90;;;;;;5131335;27;20392;-65
2021/03/23 06:34:53;;;;;;;25.70;21.33;;;7.20;99.90;;;;;;5125441;28;20406;-65
2021/03/23 06:40:00;;;;;;;23.93;19.67;;;7.30;99.90;;;;;;5131630;27;20555;-65
2021/03/23 06:42:45;;;;;;;25.87;21.60;;;7.40;99.90;;;;;;5131369;28;20893;-65
2021/03/23 06:45:34;;;;;;;28.37;22.03;;;7.40;99.90;;;;;;5131177;27;20663;-65
2021/03/23 06:51:19;;;;;;;24.27;19.93;;;7.40;99.90;;;;;;5090628;28;20510;-65
2021/03/23 06:53:44;;;;;;;26.80;23.00;;;7.50;99.90;;;;;;5069495;28;20411;-65
2021/03/23 06:56:27;;;;;;;23.37;20.37;;;7.50;99.90;;;;;;5070261;28;20884;-65
2021/03/23 06:59:15;;;;;;;23.77;20.73;;;7.50;99.90;;;;;;5070259;28;20163;-65
2021/03/23 07:01:45;;;;;;;24.13;21.13;;;7.50;99.90;;;;;;5069599;28;20405;-65
2021/03/23 07:04:33;;;;;;;23.77;21.20;;;7.60;99.90;;;;;;5070083;28;20478;-65
2021/03/23 07:07:20;;;;;;;25.17;21.50;;;7.60;99.90;;;;;;5069207;28;20386;-65
2021/03/23 07:10:07;;;;;;;22.90;20.50;;;7.70;99.90;;;;;;5069391;28;20972;-65
2021/03/23 07:15:25;;;;;;;22.87;20.53;;;7.80;99.90;;;;;;5131343;27;20560;-66
2021/03/23 07:17:53;;;;;;;26.50;20.70;;;8.00;99.90;;;;;;5130126;28;20394;-66
2021/03/23 07:23:00;;;;;;;27.27;21.47;;;8.10;99.90;;;;;;5131553;27;20576;-65
2021/03/23 07:31:10;;;;;;;23.17;20.30;;;8.40;99.90;;;;;;5131563;27;20511;-65
2021/03/23 07:39:26;;;;;;;24.73;20.57;;;8.80;99.90;;;;;;5131539;27;20573;-65
2021/03/23 07:41:58;;;;;;;24.43;21.80;;;8.90;99.90;;;;;;5129770;28;20416;-65
2021/03/23 07:44:47;;;;;;;25.70;22.00;;;8.90;99.90;;;;;;5114258;28;20456;-64
2021/03/23 07:47:21;;;;;;;24.93;21.80;;;9.00;99.90;;;;;;5109917;28;20428;-65
2021/03/23 07:49:55;;;;;;;24.50;19.87;;;9.00;99.90;;;;;;5111298;28;20727;-65
2021/03/23 07:54:59;;;;;;;22.83;20.27;;;9.10;99.90;;;;;;5131472;27;20512;-66
2021/03/23 07:57:51;;;;;;;22.87;20.43;;;9.20;99.90;;;;;;5130722;27;20394;-66
2021/03/23 08:00:35;;;;;;;30.67;22.10;;;9.30;99.90;;;;;;5116170;28;20503;-65
2021/03/23 08:03:40;;;;;;;29.33;21.60;;;9.30;99.90;;;;;;5122381;27;20524;-65
2021/03/23 08:09:28;;;;;;;24.10;18.63;;;9.50;99.90;;;;;;5131449;27;21085;-66
2021/03/23 08:12:24;;;;;;;27.13;20.73;;;9.60;99.90;;;;;;5130587;28;20388;-66
2021/03/23 08:20:45;;;;;;;30.40;22.27;;;9.70;99.90;;;;;;5072084;27;21055;-65
2021/03/23 08:25:56;;;;;;;29.87;23.10;;;9.70;99.90;;;;;;5131436;27;20512;-65
2021/03/23 08:39:40;;;;;;;26.53;22.20;;;9.80;99.90;;;;;;5131487;27;20514;-67
2021/03/23 08:42:19;;;;;;;29.77;24.57;;;9.90;99.90;;;;;;5131635;27;20774;-65
2021/03/23 08:45:09;;;;;;;33.20;24.47;;;9.90;99.90;;;;;;5130198;28;20836;-66
2021/03/23 08:47:47;;;;;;;33.13;24.70;;;10.10;99.90;;;;;;5109902;28;20390;-65
2021/03/23 08:50:36;;;;;;;28.70;24.00;;;10.20;99.90;;;;;;5109039;28;20448;-64
2021/03/23 08:53:04;;;;;;;31.10;22.37;;;10.30;99.90;;;;;;5089684;28;20387;-65
2021/03/23 08:58:09;;;;;;;33.40;23.10;;;10.40;99.90;;;;;;5110891;27;21026;-65
2021/03/23 09:08:45;;;;;;;29.90;22.47;;;10.60;99.90;;;;;;5120877;27;20536;-65
2021/03/23 09:14:21;;;;;;;35.13;24.53;;;11.20;99.90;;;;;;5131385;27;20504;-65
2021/03/23 09:25:27;;;;;;;37.83;23.30;;;11.30;99.90;;;;;;5064713;28;20521;-65
2021/03/23 09:30:48;;;;;;;29.60;23.70;;;11.70;99.90;;;;;;5131517;27;20868;-65
2021/03/23 09:33:29;;;;;;;34.53;24.27;;;12.10;99.90;;;;;;5131524;27;20395;-65
2021/03/23 09:46:56;;;;;;;28.07;20.47;;;13.10;99.40;;;;;;5110955;27;20532;-65
2021/03/23 09:49:27;;;;;;;28.40;22.00;;;13.20;98.30;;;;;;5109895;28;20384;-65
2021/03/23 09:52:17;;;;;;;27.67;21.00;;;13.20;97.40;;;;;;5110988;28;20831;-64
2021/03/23 09:54:54;;;;;;;29.90;23.60;;;13.10;97.30;;;;;;5095944;28;20391;-65
2021/03/23 09:57:23;;;;;;;27.50;21.50;;;13.10;97.40;;;;;;5109682;28;20387;-65
2021/03/23 09:59:52;;;;;;;33.20;23.60;;;13.20;96.90;;;;;;5095364;28;20393;-65
2021/03/23 10:04:53;;;;;;;25.10;19.60;;;13.20;96.80;;;;;;5111059;27;20558;-65
2021/03/23 10:10:22;;;;;;;28.90;21.30;;;13.30;96.00;;;;;;5122943;27;20937;-65
2021/03/23 10:12:48;;;;;;;24.73;20.13;;;13.40;96.30;;;;;;5108659;28;20889;-65
2021/03/23 10:15:35;;;;;;;23.00;19.33;;;13.30;95.90;;;;;;5108869;28;20422;-65
2021/03/23 10:20:47;;;;;;;24.10;18.73;;;13.30;96.40;;;;;;5131437;27;20556;-65
2021/03/23 10:23:13;;;;;;;20.23;18.10;;;13.40;95.00;;;;;;5131349;27;20391;-65
2021/03/23 10:25:43;;;;;;;21.90;18.43;;;13.40;95.10;;;;;;5131527;27;20387;-65
2021/03/23 10:28:25;;;;;;;27.37;20.43;;;13.40;95.50;;;;;;5130250;28;20390;-65
2021/03/23 10:31:02;;;;;;;25.27;19.20;;;13.30;95.40;;;;;;5130575;28;20488;-65
2021/03/23 10:33:31;;;;;;;33.50;18.87;;;13.20;95.30;;;;;;5120516;27;20884;-65
2021/03/23 10:36:00;;;;;;;21.07;17.10;;;13.10;95.30;;;;;;5109520;28;20895;-65
2021/03/23 10:44:19;;;;;;;24.60;16.80;;;13.10;96.00;;;;;;5099785;27;20517;-66
2021/03/23 10:46:46;;;;;;;20.50;16.23;;;12.90;96.60;;;;;;5097381;28;20429;-66
2021/03/23 10:49:31;;;;;;;21.43;16.43;;;12.80;96.30;;;;;;5090691;28;20409;-66
2021/03/23 10:54:37;;;;;;;21.80;15.40;;;12.80;96.20;;;;;;5111117;27;20514;-65
2021/03/23 10:57:25;;;;;;;24.23;18.67;;;12.90;96.50;;;;;;5093306;28;20398;-65
2021/03/23 10:59:50;;;;;;;23.40;17.00;;;13.00;96.50;;;;;;5095918;28;20458;-65
2021/03/23 11:05:10;;;;;;;23.10;17.67;;;13.10;96.30;;;;;;5131413;27;20499;-65
2021/03/23 11:07:55;;;;;;;22.47;16.80;;;13.20;95.80;;;;;;5118318;28;20470;-65
2021/03/23 11:10:25;;;;;;;22.27;17.67;;;13.30;95.00;;;;;;5109791;28;20393;-65
2021/03/23 11:12:51;;;;;;;24.30;17.40;;;13.30;94.90;;;;;;5110804;28;20467;-65
2021/03/23 11:15:17;;;;;;;23.87;18.13;;;13.30;95.30;;;;;;5128888;28;20399;-66
2021/03/23 11:17:47;;;;;;;23.03;16.50;;;13.30;95.00;;;;;;5127982;28;20177;-65
2021/03/23 11:20:38;;;;;;;25.13;17.63;;;13.40;95.10;;;;;;5120660;27;20411;-65
2021/03/23 11:23:21;;;;;;;20.83;16.87;;;13.50;94.90;;;;;;5110752;28;20436;-65
2021/03/23 11:25:47;;;;;;;22.37;17.20;;;13.50;94.60;;;;;;5109588;28;20389;-65
2021/03/23 11:28:17;;;;;;;25.33;18.23;;;13.50;94.50;;;;;;5115729;28;20484;-65
2021/03/23 11:30:44;;;;;;;23.77;16.07;;;13.50;94.40;;;;;;5109198;28;20170;-65
2021/03/23 11:33:12;;;;;;;20.90;15.93;;;13.60;94.40;;;;;;5124304;28;20407;-65
2021/03/23 11:35:38;;;;;;;21.10;17.07;;;13.60;94.70;;;;;;5120912;27;20408;-65
2021/03/23 11:38:03;;;;;;;23.27;17.47;;;13.60;94.50;;;;;;5110269;28;20391;-65
2021/03/23 11:40:29;;;;;;;20.80;16.77;;;13.60;94.00;;;;;;5110718;28;21109;-65
2021/03/23 11:42:55;;;;;;;19.10;15.73;;;13.50;93.90;;;;;;5110112;28;20193;-65
2021/03/23 11:47:59;;;;;;;22.10;16.63;;;13.50;93.40;;;;;;5131564;27;20512;-66
2021/03/23 11:50:28;;;;;;;22.67;17.90;;;13.70;94.00;;;;;;5131435;27;20388;-65
2021/03/23 11:52:55;;;;;;;24.40;17.33;;;13.90;93.40;;;;;;5130338;28;20391;-65
2021/03/23 11:55:26;;;;;;;24.03;16.60;;;14.00;92.60;;;;;;5131411;27;20395;-65
2021/03/23 11:57:52;;;;;;;25.93;18.30;;;14.20;92.00;;;;;;5124289;28;20407;-65
2021/03/23 12:00:20;;;;;;;21.27;17.07;;;14.30;91.20;;;;;;5110713;28;20389;-65
2021/03/23 12:02:46;;;;;;;22.17;15.87;;;14.50;91.40;;;;;;5110996;28;20388;-65
2021/03/23 12:05:12;;;;;;;22.07;17.47;;;14.60;91.50;;;;;;5110863;28;20385;-65
2021/03/23 12:07:59;;;;;;;23.00;16.90;;;14.60;90.40;;;;;;5110840;28;20202;-65
2021/03/23 12:15:46;;;;;;;25.50;18.10;;;14.60;88.80;;;;;;5118783;27;20517;-66
2021/03/23 12:18:15;;;;;;;22.20;18.80;;;14.40;90.60;;;;;;5109957;28;20796;-66
2021/03/23 12:20:42;;;;;;;32.57;18.17;;;14.40;90.00;;;;;;5110871;28;20416;-66
2021/03/23 12:23:08;;;;;;;21.77;16.87;;;14.40;90.10;;;;;;5110820;28;20381;-66
2021/03/23 12:25:35;;;;;;;22.47;16.03;;;14.40;90.50;;;;;;5110846;28;20385;-64
2021/03/23 12:28:01;;;;;;;22.53;18.40;;;14.40;90.40;;;;;;5109936;28;20407;-66
2021/03/23 12:30:28;;;;;;;26.47;18.63;;;14.40;90.00;;;;;;5109429;28;20397;-64
2021/03/23 12:32:55;;;;;;;27.10;18.57;;;14.40;90.30;;;;;;5109548;28;20465;-65
2021/03/23 12:35:25;;;;;;;22.80;18.20;;;14.40;90.20;;;;;;5110569;28;20542;-67
2021/03/23 12:37:54;;;;;;;23.57;19.40;;;14.30;90.60;;;;;;5110553;28;20385;-66
2021/03/23 12:40:21;;;;;;;24.97;18.93;;;14.30;90.20;;;;;;5110442;28;20385;-66
2021/03/23 12:42:47;;;;;;;22.70;18.87;;;14.20;90.40;;;;;;5109299;28;20488;-66
2021/03/23 12:45:26;;;;;;;20.47;18.23;;;14.20;90.40;;;;;;5110109;28;20481;-66
2021/03/23 12:47:53;;;;;;;25.20;18.43;;;14.10;90.70;;;;;;5109418;28;20446;-66
2021/03/23 12:50:19;;;;;;;24.30;18.23;;;14.00;90.60;;;;;;5110177;28;20423;-66
2021/03/23 12:52:44;;;;;;;24.27;19.77;;;13.90;90.90;;;;;;5110232;28;20418;-66
2021/03/23 12:55:26;;;;;;;24.87;19.00;;;13.90;91.30;;;;;;5110323;28;20432;-66
2021/03/23 12:57:55;;;;;;;31.80;20.93;;;13.90;91.40;;;;;;5108926;28;20151;-65
2021/03/23 13:00:25;;;;;;;23.20;19.30;;;13.90;92.30;;;;;;5108908;28;20393;-66
2021/03/23 13:02:52;;;;;;;23.13;19.60;;;13.90;92.40;;;;;;5110270;28;20431;-66
2021/03/23 13:05:19;;;;;;;29.13;19.70;;;13.90;92.10;;;;;;5109985;28;20398;-64
2021/03/23 13:07:44;;;;;;;25.80;20.50;;;14.00;92.00;;;;;;5110260;28;20409;-64
2021/03/23 13:12:51;;;;;;;20.90;18.07;;;14.10;91.50;;;;;;5110843;27;20506;-65
2021/03/23 13:15:18;;;;;;;23.43;18.53;;;14.20;91.30;;;;;;5109602;28;20491;-65
2021/03/23 13:17:43;;;;;;;25.87;20.70;;;14.20;91.30;;;;;;5110724;28;20393;-65
2021/03/23 13:20:11;;;;;;;22.63;20.07;;;14.20;90.80;;;;;;5111002;28;20388;-65
2021/03/23 13:22:47;;;;;;;25.80;20.40;;;14.10;91.20;;;;;;5109765;28;20174;-65
2021/03/23 13:25:22;;;;;;;30.40;20.70;;;14.00;91.80;;;;;;5109520;28;20567;-65
2021/03/23 13:27:51;;;;;;;23.50;18.87;;;14.00;91.70;;;;;;5109544;28;20388;-65
2021/03/23 13:30:26;;;;;;;25.03;19.90;;;14.00;91.40;;;;;;5110724;28;20446;-65
2021/03/23 13:32:53;;;;;;;25.20;20.23;;;14.00;91.40;;;;;;5110543;28;20452;-65
2021/03/23 13:35:19;;;;;;;27.07;19.60;;;14.10;91.60;;;;;;5110653;28;20389;-65
2021/03/23 13:37:45;;;;;;;23.57;18.83;;;14.10;91.70;;;;;;5109230;28;20403;-65
2021/03/23 13:42:47;;;;;;;23.90;19.80;;;14.10;91.40;;;;;;5110890;27;20521;-66
2021/03/23 13:48:17;;;;;;;21.87;19.30;;;14.00;91.30;;;;;;5131326;27;20562;-64
2021/03/23 13:50:43;;;;;;;23.43;18.00;;;14.00;92.30;;;;;;5131566;28;20869;-66
2021/03/23 13:53:14;;;;;;;23.87;19.30;;;13.90;91.80;;;;;;5131499;28;20389;-64
2021/03/23 13:55:41;;;;;;;26.27;19.00;;;13.90;92.90;;;;;;5130582;28;20154;-65
2021/03/23 13:58:08;;;;;;;25.77;19.63;;;13.90;92.60;;;;;;5114577;27;20409;-65
2021/03/23 14:00:37;;;;;;;22.70;17.57;;;13.80;92.20;;;;;;5109572;28;20373;-65
2021/03/23 14:03:04;;;;;;;21.47;19.27;;;13.80;92.20;;;;;;5109522;28;20446;-65
2021/03/23 14:05:30;;;;;;;21.47;19.07;;;13.80;92.70;;;;;;5109626;28;20395;-65
2021/03/23 14:07:56;;;;;;;24.37;19.27;;;13.90;92.40;;;;;;5110423;28;20976;-65
2021/03/23 14:10:25;;;;;;;21.73;17.63;;;13.90;92.70;;;;;;5110725;28;20393;-65
2021/03/23 14:12:53;;;;;;;23.63;18.17;;;13.90;92.00;;;;;;5110640;28;20389;-65
2021/03/23 14:15:26;;;;;;;21.03;18.23;;;13.80;92.40;;;;;;5111208;28;20408;-65
2021/03/23 14:17:52;;;;;;;25.47;19.80;;;13.70;92.50;;;;;;5110533;28;20436;-65
2021/03/23 14:20:19;;;;;;;23.70;18.10;;;13.60;92.50;;;;;;5110276;28;20835;-65
2021/03/23 14:22:46;;;;;;;21.40;17.00;;;13.60;92.80;;;;;;5110540;28;20778;-65
2021/03/23 14:25:33;;;;;;;20.57;16.87;;;13.50;93.40;;;;;;5091941;28;20397;-65
2021/03/23 14:28:02;;;;;;;22.47;17.30;;;13.50;94.20;;;;;;5110607;28;20444;-65
2021/03/23 14:30:32;;;;;;;20.37;16.60;;;13.50;93.70;;;;;;5109830;28;20413;-65
2021/03/23 14:32:59;;;;;;;20.77;17.00;;;13.50;93.70;;;;;;5109181;28;20388;-65
2021/03/23 14:35:25;;;;;;;24.90;16.90;;;13.50;92.80;;;;;;5108864;28;20381;-65
2021/03/23 14:37:54;;;;;;;21.50;16.87;;;13.50;92.70;;;;;;5108769;28;20400;-65
2021/03/23 14:40:29;;;;;;;18.20;16.10;;;13.60;92.60;;;;;;5108981;28;20185;-65
2021/03/23 14:42:57;;;;;;;18.30;15.47;;;13.60;92.50;;;;;;5109118;28;20396;-65
2021/03/23 14:45:23;;;;;;;26.73;16.97;;;13.60;92.60;;;;;;5109931;28;20488;-65
2021/03/23 14:47:48;;;;;;;20.60;16.00;;;13.70;93.00;;;;;;5110360;28;20550;-64
2021/03/23 14:50:15;;;;;;;23.77;17.87;;;13.70;92.90;;;;;;5109925;28;20514;-65
2021/03/23 14:52:43;;;;;;;22.00;16.80;;;13.70;93.40;;;;;;5109936;28;20155;-65
2021/03/23 14:55:16;;;;;;;20.70;16.47;;;13.70;92.80;;;;;;5109029;28;20392;-65
2021/03/23 14:57:43;;;;;;;21.80;16.30;;;13.70;93.00;;;;;;5106742;28;20401;-65
2021/03/23 15:00:21;;;;;;;19.13;16.80;;;13.60;93.90;;;;;;5096157;28;20403;-65
2021/03/23 15:02:47;;;;;;;22.33;15.47;;;13.60;93.80;;;;;;5095014;28;20393;-65